Αρχική σελίδα
METAR-TAF:

METAR-TAF

Αεροδρόμια :

Πάγκο Πάγκο, Απομακρυσμένες Νησίδες των Ηνωμένων Πολιτειών

γεωγραφικό πλάτος: 14-20S, γεωγραφικό μήκος: 170-43W, υψόμετρο: 3 μ

Παρών καιρός

Η αναφορά έγινε 52 λεπτά πριν, στις 02:50 UTC
Άνεμος 8 kt από Α
Θερμοκρασία 30°C
Υγρασία 66%
Πίεση 1012 hPa
Ορατότητα: 19.3 χλμ
Λίγα νέφη σε ύψος 1700 πόδια

METAR: NSTU 200250Z 10008KT 12SM FEW017 30/23 A2988 RMK SLP120 8/100 T02990234 56012

Χρόνος: 16:42 (03:42 UTC)

Πρόγνωση Καιρού

Η αναφορά έγινε 4 ώρες και 22 λεπτά πριν, στις 23:20 UTC
Η πρόγνωση ισχύει από τις 20 στις 00 UTC έως τις 20 στις 24 UTC
Άνεμος 10 kt από Α/NA
Ορατότητα: 10 χλμ
Διάσπαρτα νέφη σε ύψος 1500 πόδια
Διάσπαρτα νέφη σε ύψος 4000 πόδια
Διάσπαρτα νέφη σε ύψος 10000 πόδια

TAF: NSTU 192320Z 2000/2024 11010KT P6SM SCT015 SCT040 SCT100

Μετεωρολογικές αναφορές και προγνώσεις για περισσότερα από 4000 αεροδρόμια (δελτία METAR και TAF).

Οι διαθέσιμοι σταθμοί απεικονίζονται στο χάρτη με κίτρινες και κόκκινες κουκκίδες.

Μετακινήστε το ποντίκι πάνω από τις κουκκίδες για να δείτε το όνομα του σταθμού.

Στη συνέχεια, κάντε κλικ για να δείτε τις μετεωρολογικές αναφορές και τις προγνώσεις καιρού.

Για να αλλάξετε το χάρτη: κάντε κλικ στα πράσινα κουμπιά με τον μαύρο σταυρό για να ζουμάρετε, στο πράσινο κουμπί με την παύλα για να αφαιρέσετε το ζουμ ή στα πράσινα βέλη για να αντιπαραβάλλετε χάρτες.


METAR-TAF: